Ana Sayfa
METAR-TAF:

METAR-TAF

Havaalanları :

Lonesome Pine Airport

Wise, Virginia, Amerika Birleşik Devletleri

Enlem: 36-59N, Boylam: 082-32W, yükseklik: 817 m

Güncel hava durumu gözlemi

Rapor saat 23:55 UTC de 10 dakika önce yapıldı.
Rüzgar güney/güneydoğudan 5 kt
Sıcaklık 5°C
Nem 45%
Basınç 1026 hPa
Görüş mesafesi: 16.1 km
Açık gökyüzü

METAR: KLNP 122355Z AUTO 16005KT 10SM CLR 05/M06 A3031 RMK AO2

Saat: 19:05 (00:05 UTC)


TAF: eksik

4.000'den fazla havaalanı için hava durumu gözlemleri ve tahminleri (METAR ve TAF raporları).

Kullanılabilir istasyonlar harita üzerinde sarı ve kırmızı noktalarla gösterilir.

İstasyonun adını görmek için fareyi noktanın üzerinde gezdirin.

Sonrasında hava gözlem ve tahminlerini görmek için tıklayın.

Haritayı değiştirmek için: yaklaştırmak için siyah artı işaretli yeşil düğmeye ve uzaklaştırmak için de eksi işaretli düğmeye hızla tıklayın; bitişik haritalar için yeşil okları kullanın.


METAR-TAF: